Valle Azzurra — ICEG — position and weather

sailwx.info

Track history (hours):
 
Tides and Currents Weather Stations Pressure Air Temp Water Temp Dewpoint Dewpoint Depression Visibility Wind Speed Wind Dir Waves Ship Positions

Valle Azzurra

Last reported at 2017-May-21 02:15 UTC. Time now 2017-May-23 14:51 UTC.
Position N 25°28' W 079°33'.

Length 183 m; draft 8.2 m.

Type: Tanker. MMSI: 247226600.

Date/timePositionNaut miles runAvg speedWind from/ knotsBaromVisibWave heightAir tempDewpointWater temp
2017-May-21 02:15N 25°28' W 079°33'210.2
2017-May-21 02:00N 25°30' W 079°32'5 9.9
2017-May-21 01:30N 25°35' W 079°32'5 9.5
2017-May-21 01:00N 25°40' W 079°32'6 9.6
2017-May-21 00:26N 25°45' W 079°31'4 9.9
2017-May-21 00:00N 25°50' W 079°31'5 9.9
2017-May-20 23:30N 25°54' W 079°30'4 8.0
2017-May-20 23:00N 25°58' W 079°30'5 9.3
2017-May-20 22:30N 26°03' W 079°30'2 3.7
2017-May-20 22:00N 26°05' W 079°30'510.5
2017-May-20 21:30N 26°10' W 079°29'510.6
2017-May-20 21:00N 26°15' W 079°28'  
2017-May-17 12:46N 39°16' W 073°09'312.5
2017-May-17 12:29N 39°19' W 073°10'712.7
2017-May-17 11:58N 39°26' W 073°11'612.7
2017-May-17 11:30N 39°31' W 073°13'612.6
2017-May-17 11:00N 39°38' W 073°14'612.8
2017-May-17 10:30N 39°44' W 073°15'613.0
2017-May-17 10:00N 39°50' W 073°17'712.9
2017-May-17 09:30N 39°57' W 073°19'713.1
2017-May-17 09:00N 40°02' W 073°25'713.2
2017-May-17 08:30N 40°07' W 073°30'713.2
2017-May-17 07:59N 40°13' W 073°35'713.1
2017-May-17 07:27N 40°18' W 073°40'613.2
2017-May-17 07:00N 40°23' W 073°45'612.3
2017-May-17 06:29N 40°27' W 073°51'510.5
2017-May-17 06:00N 40°30' W 073°57'5 9.9
2017-May-17 05:30N 40°33' W 074°02'4 8.1
2017-May-17 05:00N 40°37' W 074°03'0 0.8
2017-May-17 04:30N 40°37' W 074°03'0 0.0
2017-May-17 04:00N 40°37' W 074°03'0 0.0
2017-May-17 03:30N 40°37' W 074°03'0 0.0
2017-May-17 03:00N 40°37' W 074°03'0 0.0
2017-May-17 02:30N 40°37' W 074°03'0 0.1
2017-May-17 02:00N 40°37' W 074°03'0 0.3
2017-May-17 01:30N 40°37' W 074°03'0 0.1
2017-May-17 01:00N 40°37' W 074°03'0 0.0
2017-May-17 00:30N 40°37' W 074°03'0 0.1
2017-May-17 00:00N 40°37' W 074°03'0 0.1
2017-May-16 23:30N 40°37' W 074°03'0 0.0
2017-May-16 23:00N 40°37' W 074°03'0 0.1
2017-May-16 22:30N 40°37' W 074°03'0 0.1
2017-May-16 22:00N 40°37' W 074°03'0 0.0
2017-May-16 21:30N 40°37' W 074°03'0 0.3
2017-May-16 21:00N 40°37' W 074°03'2 3.1
2017-May-16 20:30N 40°39' W 074°04'3 6.7
2017-May-16 20:00N 40°39' W 074°08'3 6.0
2017-May-16 19:30N 40°38' W 074°12'2 4.4
2017-May-16 19:00N 40°36' W 074°12'2 3.0
2017-May-16 18:30N 40°34' W 074°13'1 0.2
2017-May-16 13:34N 40°35' W 074°13'0 0.0
2017-May-16 13:26N 40°35' W 074°13'0 0.0
2017-May-16 12:59N 40°35' W 074°13'0 0.0
2017-May-16 12:09N 40°35' W 074°13'0 0.0
2017-May-16 10:24N 40°35' W 074°13'0 0.0
2017-May-16 08:14N 40°35' W 074°13'0 0.1
2017-May-16 08:00N 40°35' W 074°13'0 0.0
2017-May-15 13:01N 40°35' W 074°13'0 0.0
2017-May-15 13:00N 40°35' W 074°13'0 0.0
2017-May-15 03:10N 40°35' W 074°13'0 0.8
2017-May-15 02:58N 40°35' W 074°12'2 3.7
2017-May-15 02:30N 40°37' W 074°12'2 4.9
2017-May-15 02:00N 40°39' W 074°10'3 6.5
2017-May-15 01:30N 40°39' W 074°06'3 6.2
2017-May-15 01:00N 40°37' W 074°03'2 3.5
2017-May-15 00:30N 40°35' W 074°02'0 0.2
2017-May-15 00:00N 40°35' W 074°02'0 0.0
2017-May-14 23:30N 40°35' W 074°02'0 0.0
2017-May-14 23:00N 40°35' W 074°02'0 0.0
2017-May-14 22:30N 40°35' W 074°02'0 0.0
2017-May-14 22:00N 40°35' W 074°02'0 0.0
2017-May-14 21:30N 40°35' W 074°02'0 0.0
2017-May-14 21:00N 40°35' W 074°02'0 0.0
2017-May-14 20:30N 40°35' W 074°02'0 0.1
2017-May-14 20:00N 40°35' W 074°02'0 0.0
2017-May-14 19:30N 40°35' W 074°02'0 0.0
2017-May-14 19:00N 40°35' W 074°02'0 0.0
2017-May-14 18:30N 40°35' W 074°02'0 0.0
2017-May-14 18:00N 40°35' W 074°02'0 0.1
2017-May-14 17:30N 40°35' W 074°02'0 0.3
2017-May-14 17:00N 40°35' W 074°02'0 0.2
2017-May-14 16:30N 40°35' W 074°02'0 0.0
2017-May-14 16:00N 40°35' W 074°02'0 0.0
2017-May-14 15:30N 40°35' W 074°02'0 0.0
2017-May-14 15:00N 40°35' W 074°02'0 0.1
2017-May-14 14:30N 40°35' W 074°02'0 0.1
2017-May-14 13:30N 40°35' W 074°02'0 0.1
2017-May-14 13:00N 40°35' W 074°02'0 0.1
2017-May-14 12:30N 40°35' W 074°02'0 0.1
2017-May-14 12:00N 40°35' W 074°02'0 0.0
2017-May-14 11:30N 40°35' W 074°02'0 0.0
2017-May-14 11:00N 40°35' W 074°02'0 0.0
2017-May-14 10:30N 40°35' W 074°02'0 0.0
2017-May-14 10:00N 40°35' W 074°02'0 0.0
2017-May-14 09:30N 40°35' W 074°02'0 0.0
2017-May-14 09:00N 40°35' W 074°02'0 0.0
2017-May-14 08:30N 40°35' W 074°02'0 0.0
2017-May-14 08:00N 40°35' W 074°02'0 0.0
2017-May-14 07:30N 40°35' W 074°02'0 0.0
2017-May-14 07:00N 40°35' W 074°02'0 0.0
2017-May-14 06:30N 40°35' W 074°02'0 0.1
2017-May-14 06:00N 40°35' W 074°02'1 1.9
2017-May-14 05:30N 40°34' W 074°02'3 5.6
2017-May-14 05:00N 40°32' W 074°01'510.3
2017-May-14 04:30N 40°29' W 073°55'610.9
2017-May-14 03:59N 40°27' W 073°48'  
Track history (hours):
 
Tides and Currents Weather Stations Pressure Air Temp Water Temp Dewpoint Dewpoint Depression Visibility Wind Speed Wind Dir Waves Ship Positions

Valle Azzurra

Last reported at 2017-May-21 02:15 UTC. Time now 2017-May-23 14:51 UTC.
Position N 25°28' W 079°33'.

Length 183 m; draft 8.2 m.

Type: Tanker. MMSI: 247226600.

Date/timePositionNaut miles runAvg speedWind from/ knotsBaromVisibWave heightAir tempDewpointWater temp
2017-May-21 02:15N 25°28' W 079°33'210.2
2017-May-21 02:00N 25°30' W 079°32'5 9.9
2017-May-21 01:30N 25°35' W 079°32'5 9.5
2017-May-21 01:00N 25°40' W 079°32'6 9.6
2017-May-21 00:26N 25°45' W 079°31'4 9.9
2017-May-21 00:00N 25°50' W 079°31'5 9.9
2017-May-20 23:30N 25°54' W 079°30'4 8.0
2017-May-20 23:00N 25°58' W 079°30'5 9.3
2017-May-20 22:30N 26°03' W 079°30'2 3.7
2017-May-20 22:00N 26°05' W 079°30'510.5
2017-May-20 21:30N 26°10' W 079°29'510.6
2017-May-20 21:00N 26°15' W 079°28'  
2017-May-17 12:46N 39°16' W 073°09'312.5
2017-May-17 12:29N 39°19' W 073°10'712.7
2017-May-17 11:58N 39°26' W 073°11'612.7
2017-May-17 11:30N 39°31' W 073°13'612.6
2017-May-17 11:00N 39°38' W 073°14'612.8
2017-May-17 10:30N 39°44' W 073°15'613.0
2017-May-17 10:00N 39°50' W 073°17'712.9
2017-May-17 09:30N 39°57' W 073°19'713.1
2017-May-17 09:00N 40°02' W 073°25'713.2
2017-May-17 08:30N 40°07' W 073°30'713.2
2017-May-17 07:59N 40°13' W 073°35'713.1
2017-May-17 07:27N 40°18' W 073°40'613.2
2017-May-17 07:00N 40°23' W 073°45'612.3
2017-May-17 06:29N 40°27' W 073°51'510.5
2017-May-17 06:00N 40°30' W 073°57'5 9.9
2017-May-17 05:30N 40°33' W 074°02'4 8.1
2017-May-17 05:00N 40°37' W 074°03'0 0.8
2017-May-17 04:30N 40°37' W 074°03'0 0.0
2017-May-17 04:00N 40°37' W 074°03'0 0.0
2017-May-17 03:30N 40°37' W 074°03'0 0.0
2017-May-17 03:00N 40°37' W 074°03'0 0.0
2017-May-17 02:30N 40°37' W 074°03'0 0.1
2017-May-17 02:00N 40°37' W 074°03'0 0.3
2017-May-17 01:30N 40°37' W 074°03'0 0.1
2017-May-17 01:00N 40°37' W 074°03'0 0.0
2017-May-17 00:30N 40°37' W 074°03'0 0.1
2017-May-17 00:00N 40°37' W 074°03'0 0.1
2017-May-16 23:30N 40°37' W 074°03'0 0.0
2017-May-16 23:00N 40°37' W 074°03'0 0.1
2017-May-16 22:30N 40°37' W 074°03'0 0.1
2017-May-16 22:00N 40°37' W 074°03'0 0.0
2017-May-16 21:30N 40°37' W 074°03'0 0.3
2017-May-16 21:00N 40°37' W 074°03'2 3.1
2017-May-16 20:30N 40°39' W 074°04'3 6.7
2017-May-16 20:00N 40°39' W 074°08'3 6.0
2017-May-16 19:30N 40°38' W 074°12'2 4.4
2017-May-16 19:00N 40°36' W 074°12'2 3.0
2017-May-16 18:30N 40°34' W 074°13'1 0.2
2017-May-16 13:34N 40°35' W 074°13'0 0.0
2017-May-16 13:26N 40°35' W 074°13'0 0.0
2017-May-16 12:59N 40°35' W 074°13'0 0.0
2017-May-16 12:09N 40°35' W 074°13'0 0.0
2017-May-16 10:24N 40°35' W 074°13'0 0.0
2017-May-16 08:14N 40°35' W 074°13'0 0.1
2017-May-16 08:00N 40°35' W 074°13'0 0.0
2017-May-15 13:01N 40°35' W 074°13'0 0.0
2017-May-15 13:00N 40°35' W 074°13'0 0.0
2017-May-15 03:10N 40°35' W 074°13'0 0.8
2017-May-15 02:58N 40°35' W 074°12'2 3.7
2017-May-15 02:30N 40°37' W 074°12'2 4.9
2017-May-15 02:00N 40°39' W 074°10'3 6.5
2017-May-15 01:30N 40°39' W 074°06'3 6.2
2017-May-15 01:00N 40°37' W 074°03'2 3.5
2017-May-15 00:30N 40°35' W 074°02'0 0.2
2017-May-15 00:00N 40°35' W 074°02'0 0.0
2017-May-14 23:30N 40°35' W 074°02'0 0.0
2017-May-14 23:00N 40°35' W 074°02'0 0.0
2017-May-14 22:30N 40°35' W 074°02'0 0.0
2017-May-14 22:00N 40°35' W 074°02'0 0.0
2017-May-14 21:30N 40°35' W 074°02'0 0.0
2017-May-14 21:00N 40°35' W 074°02'0 0.0
2017-May-14 20:30N 40°35' W 074°02'0 0.1
2017-May-14 20:00N 40°35' W 074°02'0 0.0
2017-May-14 19:30N 40°35' W 074°02'0 0.0
2017-May-14 19:00N 40°35' W 074°02'0 0.0
2017-May-14 18:30N 40°35' W 074°02'0 0.0
2017-May-14 18:00N 40°35' W 074°02'0 0.1
2017-May-14 17:30N 40°35' W 074°02'0 0.3
2017-May-14 17:00N 40°35' W 074°02'0 0.2
2017-May-14 16:30N 40°35' W 074°02'0 0.0
2017-May-14 16:00N 40°35' W 074°02'0 0.0
2017-May-14 15:30N 40°35' W 074°02'0 0.0
2017-May-14 15:00N 40°35' W 074°02'0 0.1
2017-May-14 14:30N 40°35' W 074°02'0 0.1
2017-May-14 13:30N 40°35' W 074°02'0 0.1
2017-May-14 13:00N 40°35' W 074°02'0 0.1
2017-May-14 12:30N 40°35' W 074°02'0 0.1
2017-May-14 12:00N 40°35' W 074°02'0 0.0
2017-May-14 11:30N 40°35' W 074°02'0 0.0
2017-May-14 11:00N 40°35' W 074°02'0 0.0
2017-May-14 10:30N 40°35' W 074°02'0 0.0
2017-May-14 10:00N 40°35' W 074°02'0 0.0
2017-May-14 09:30N 40°35' W 074°02'0 0.0
2017-May-14 09:00N 40°35' W 074°02'0 0.0
2017-May-14 08:30N 40°35' W 074°02'0 0.0
2017-May-14 08:00N 40°35' W 074°02'0 0.0
2017-May-14 07:30N 40°35' W 074°02'0 0.0
2017-May-14 07:00N 40°35' W 074°02'0 0.0
2017-May-14 06:30N 40°35' W 074°02'0 0.1
2017-May-14 06:00N 40°35' W 074°02'1 1.9
2017-May-14 05:30N 40°34' W 074°02'3 5.6
2017-May-14 05:00N 40°32' W 074°01'510.3
2017-May-14 04:30N 40°29' W 073°55'610.9
2017-May-14 03:59N 40°27' W 073°48'  

Dump ship's entire track history